Time;durP1;ratioP1;P1;durP2;ratioP2;P2;SDS_P1;SDS_P2;PMS_P1;PMS_P2;Temp;Humidity;BMP_temperature;BMP_pressure;BME280_temperature;BME280_humidity;BME280_pressure;Samples;Min_cycle;Max_cycle;Signal;HPM_P1;HPM_P2
2022/03/04 00:02:10;;;;;;;0.82;0.80;;;16.50;64.40;;;;;;5061196;28;20049;-19
2022/03/04 00:04:37;;;;;;;0.90;0.85;;;16.50;64.40;;;;;;5061952;28;20071;-19
2022/03/04 00:07:04;;;;;;;0.80;0.80;;;16.50;64.80;;;;;;5063744;28;20047;-19
2022/03/04 00:09:30;;;;;;;0.80;0.70;;;16.50;64.80;;;;;;5067213;28;20059;-18
2022/03/04 00:11:56;;;;;;;0.82;0.82;;;16.60;64.40;;;;;;5066199;28;20052;-19
2022/03/04 00:14:21;;;;;;;0.75;0.75;;;16.50;64.40;;;;;;5061041;28;20045;-19
2022/03/04 00:16:47;;;;;;;1.48;0.98;;;16.50;64.40;;;;;;5053836;28;20056;-18
2022/03/04 00:19:13;;;;;;;0.70;0.70;;;16.60;64.40;;;;;;5052991;28;20088;-19
2022/03/04 00:21:44;;;;;;;1.00;1.00;;;16.60;64.40;;;;;;5056385;28;20056;-19
2022/03/04 00:24:10;;;;;;;1.38;1.10;;;16.60;64.50;;;;;;5070025;28;20049;-19
2022/03/04 00:26:36;;;;;;;1.00;0.90;;;16.50;64.60;;;;;;5069264;28;20059;-19
2022/03/04 00:29:02;;;;;;;1.10;1.00;;;16.50;64.50;;;;;;5052596;28;20049;-19
2022/03/04 00:31:28;;;;;;;1.00;0.80;;;16.60;64.40;;;;;;5062822;28;20138;-19
2022/03/04 00:33:54;;;;;;;1.20;1.00;;;16.50;64.50;;;;;;5070927;28;20087;-19
2022/03/04 00:36:22;;;;;;;2.30;0.90;;;16.50;64.70;;;;;;5072845;28;20056;-18
2022/03/04 00:38:49;;;;;;;1.08;0.95;;;16.50;64.60;;;;;;5060908;28;20055;-19
2022/03/04 00:41:17;;;;;;;1.00;0.90;;;16.50;64.50;;;;;;5071035;28;20041;-19
2022/03/04 00:43:43;;;;;;;1.10;1.00;;;16.50;64.60;;;;;;5072744;28;20044;-19
2022/03/04 00:46:08;;;;;;;1.20;1.10;;;16.40;64.70;;;;;;5072277;28;20055;-19
2022/03/04 00:48:34;;;;;;;1.17;1.08;;;16.40;64.70;;;;;;5062523;28;20032;-19
2022/03/04 00:51:00;;;;;;;1.35;1.17;;;16.50;64.70;;;;;;5053904;28;20056;-19
2022/03/04 00:53:26;;;;;;;1.00;0.90;;;16.40;65.00;;;;;;5061395;28;20045;-19
2022/03/04 00:55:51;;;;;;;0.98;0.88;;;16.50;64.70;;;;;;5057237;28;20279;-21
2022/03/04 00:58:17;;;;;;;1.63;1.00;;;16.50;64.80;;;;;;5051680;28;20626;-19
2022/03/04 01:00:42;;;;;;;0.93;0.90;;;16.50;64.50;;;;;;5075642;28;20131;-19
2022/03/04 01:03:08;;;;;;;1.20;1.02;;;16.50;64.60;;;;;;5060378;28;20091;-19
2022/03/04 01:05:34;;;;;;;1.70;0.90;;;16.50;64.50;;;;;;5055804;28;20052;-18
2022/03/04 01:07:59;;;;;;;1.25;1.10;;;16.50;64.40;;;;;;5065885;28;20047;-19
2022/03/04 01:10:25;;;;;;;1.55;1.10;;;16.50;64.70;;;;;;5056386;28;20052;-19
2022/03/04 01:12:51;;;;;;;0.98;0.90;;;16.50;64.60;;;;;;5058124;28;20037;-19
2022/03/04 01:15:17;;;;;;;1.27;1.10;;;16.50;64.60;;;;;;5055111;28;20387;-19
2022/03/04 01:17:42;;;;;;;1.08;0.98;;;16.50;64.60;;;;;;5066562;28;20067;-18
2022/03/04 01:20:09;;;;;;;1.10;0.98;;;16.40;64.60;;;;;;5059844;28;20063;-19
2022/03/04 01:22:34;;;;;;;1.30;1.20;;;16.40;64.50;;;;;;5062718;28;20041;-19
2022/03/04 01:25:00;;;;;;;1.20;1.10;;;16.40;64.60;;;;;;5060229;28;20489;-19
2022/03/04 01:27:26;;;;;;;1.30;1.20;;;16.40;64.60;;;;;;5067450;28;20037;-19
2022/03/04 01:29:52;;;;;;;1.30;1.20;;;16.40;64.40;;;;;;5075742;28;20040;-19
2022/03/04 01:32:17;;;;;;;1.20;1.00;;;16.40;64.60;;;;;;5055815;28;20045;-19
2022/03/04 01:34:43;;;;;;;1.10;0.90;;;16.40;64.60;;;;;;5058471;28;20039;-19
2022/03/04 01:37:09;;;;;;;0.73;0.73;;;16.40;64.60;;;;;;5054742;28;20062;-19
2022/03/04 01:39:35;;;;;;;0.85;0.85;;;16.40;64.40;;;;;;5067524;28;20454;-19
2022/03/04 01:42:01;;;;;;;1.02;0.98;;;16.40;64.50;;;;;;5071825;28;20044;-19
2022/03/04 01:44:26;;;;;;;0.80;0.80;;;16.40;64.40;;;;;;5059232;28;20136;-19
2022/03/04 01:46:52;;;;;;;0.95;0.85;;;16.40;64.50;;;;;;5054167;28;20029;-19
2022/03/04 01:49:18;;;;;;;1.17;0.93;;;16.40;64.50;;;;;;5057066;28;20052;-19
2022/03/04 01:51:43;;;;;;;1.30;0.98;;;16.30;64.70;;;;;;5054177;28;20037;-18
2022/03/04 01:54:09;;;;;;;1.00;1.00;;;16.30;64.70;;;;;;5071275;28;20032;-19
2022/03/04 01:56:34;;;;;;;1.77;1.30;;;16.30;64.80;;;;;;5065061;28;20047;-19
2022/03/04 01:59:00;;;;;;;0.80;0.80;;;16.30;64.70;;;;;;5071474;28;20047;-19
2022/03/04 02:01:26;;;;;;;1.23;1.00;;;16.30;64.60;;;;;;5061233;28;20075;-18
2022/03/04 02:03:51;;;;;;;0.93;0.93;;;16.30;64.50;;;;;;5061073;28;20121;-19
2022/03/04 02:06:17;;;;;;;1.40;1.30;;;16.40;64.40;;;;;;5054576;28;20041;-19
2022/03/04 02:08:42;;;;;;;1.20;1.08;;;16.40;65.00;;;;;;5055394;28;20041;-19
2022/03/04 02:11:08;;;;;;;1.20;1.10;;;16.40;64.40;;;;;;5036945;28;20139;-19
2022/03/04 02:13:34;;;;;;;1.00;0.90;;;16.40;64.50;;;;;;5054945;28;20565;-19
2022/03/04 02:16:00;;;;;;;0.85;0.85;;;16.30;64.40;;;;;;5054450;28;20044;-19
2022/03/04 02:18:26;;;;;;;0.93;0.93;;;16.30;64.60;;;;;;5053825;28;20052;-18
2022/03/04 02:20:52;;;;;;;1.00;0.85;;;16.30;64.70;;;;;;5037538;28;20052;-18
2022/03/04 02:23:18;;;;;;;1.27;0.80;;;16.30;64.50;;;;;;5054531;28;20068;-19
2022/03/04 02:25:51;;;;;;;1.10;1.00;;;16.30;64.40;;;;;;5053650;28;20045;-19
2022/03/04 02:28:17;;;;;;;1.30;1.17;;;16.30;64.50;;;;;;5052923;28;20040;-19
2022/03/04 02:30:43;;;;;;;1.35;0.90;;;16.30;64.40;;;;;;5062301;28;20049;-19
2022/03/04 02:33:08;;;;;;;2.35;0.90;;;16.30;64.40;;;;;;5080876;28;20052;-19
2022/03/04 02:35:34;;;;;;;1.10;0.95;;;16.30;64.40;;;;;;5067741;28;20053;-19
2022/03/04 02:38:00;;;;;;;0.95;0.73;;;16.30;64.40;;;;;;5061329;28;20045;-19
2022/03/04 02:40:26;;;;;;;1.55;1.20;;;16.30;64.60;;;;;;5043952;28;20051;-19
2022/03/04 02:42:52;;;;;;;1.20;1.10;;;16.20;64.70;;;;;;5064224;28;20036;-19
2022/03/04 02:45:18;;;;;;;1.20;1.10;;;16.20;64.70;;;;;;5059846;28;20100;-19
2022/03/04 02:47:43;;;;;;;1.25;1.15;;;16.30;64.50;;;;;;5061819;28;20048;-19
2022/03/04 02:50:09;;;;;;;0.70;0.70;;;16.30;64.60;;;;;;5060067;28;20045;-19
2022/03/04 02:52:35;;;;;;;0.80;0.70;;;16.20;64.60;;;;;;5061567;28;20045;-19
2022/03/04 02:55:00;;;;;;;0.80;0.80;;;16.20;64.60;;;;;;5061336;28;20580;-20
2022/03/04 02:57:26;;;;;;;1.00;0.80;;;16.20;64.50;;;;;;5077186;28;20037;-19
2022/03/04 02:59:52;;;;;;;1.05;0.60;;;16.30;64.50;;;;;;5060245;28;20116;-19
2022/03/04 03:02:17;;;;;;;0.70;0.70;;;16.30;64.50;;;;;;5073898;28;20501;-19
2022/03/04 03:04:43;;;;;;;0.70;0.65;;;16.30;64.50;;;;;;5081682;28;20047;-19
2022/03/04 03:07:08;;;;;;;1.30;0.70;;;16.30;64.60;;;;;;5075275;28;20091;-19
2022/03/04 03:09:34;;;;;;;0.60;0.60;;;16.20;64.70;;;;;;5060168;28;20622;-19
2022/03/04 03:12:00;;;;;;;0.73;0.50;;;16.20;64.50;;;;;;5061485;28;20041;-18
2022/03/04 03:14:25;;;;;;;0.80;0.80;;;16.20;64.50;;;;;;5058967;28;20045;-18
2022/03/04 03:16:51;;;;;;;0.60;0.60;;;16.20;64.60;;;;;;5060209;28;20454;-19
2022/03/04 03:19:17;;;;;;;0.90;0.70;;;16.20;64.60;;;;;;5075869;28;20057;-19
2022/03/04 03:21:42;;;;;;;0.60;0.60;;;16.20;64.60;;;;;;5061557;28;20062;-19
2022/03/04 03:24:08;;;;;;;0.70;0.68;;;16.20;64.60;;;;;;5060852;28;20072;-19
2022/03/04 03:26:34;;;;;;;0.65;0.65;;;16.20;64.60;;;;;;5061290;28;20489;-19
2022/03/04 03:29:00;;;;;;;0.60;0.55;;;16.20;64.40;;;;;;5060876;28;20072;-19
2022/03/04 03:31:26;;;;;;;0.43;0.38;;;16.20;64.40;;;;;;5046871;28;20040;-19
2022/03/04 03:33:52;;;;;;;0.55;0.50;;;16.30;64.30;;;;;;5077432;27;20052;-19
2022/03/04 03:36:17;;;;;;;0.80;0.80;;;16.20;64.30;;;;;;5060854;28;20390;-19
2022/03/04 03:38:43;;;;;;;0.52;0.52;;;16.20;64.40;;;;;;5076454;28;20136;-19
2022/03/04 03:41:09;;;;;;;1.10;0.80;;;16.20;64.40;;;;;;5060255;28;20056;-19
2022/03/04 03:43:35;;;;;;;0.63;0.63;;;16.20;64.30;;;;;;5060133;28;20056;-18
2022/03/04 03:46:00;;;;;;;0.50;0.40;;;16.20;64.30;;;;;;5056913;28;20907;-18
2022/03/04 03:48:26;;;;;;;0.88;0.60;;;16.20;64.50;;;;;;5057563;28;20341;-18
2022/03/04 03:50:52;;;;;;;0.70;0.70;;;16.20;64.50;;;;;;5057797;28;20043;-19
2022/03/04 03:53:17;;;;;;;0.52;0.52;;;16.20;64.40;;;;;;5055886;28;20048;-19
2022/03/04 03:55:43;;;;;;;1.05;0.60;;;16.20;64.50;;;;;;5058035;28;20076;-19
2022/03/04 03:58:08;;;;;;;0.80;0.70;;;16.20;64.50;;;;;;5057183;28;20072;-19
2022/03/04 04:00:34;;;;;;;0.60;0.60;;;16.20;64.50;;;;;;5058034;28;20095;-19
2022/03/04 04:03:00;;;;;;;0.80;0.57;;;16.20;64.40;;;;;;5063130;28;20041;-19
2022/03/04 04:05:26;;;;;;;1.50;0.75;;;16.20;64.30;;;;;;5066653;28;20040;-19
2022/03/04 04:07:52;;;;;;;0.63;0.50;;;16.20;64.40;;;;;;5056437;28;20052;-19
2022/03/04 04:10:17;;;;;;;0.95;0.57;;;16.20;64.20;;;;;;5038857;28;20041;-18
2022/03/04 04:12:43;;;;;;;0.80;0.60;;;16.20;64.40;;;;;;5056828;28;20072;-19
2022/03/04 04:15:09;;;;;;;0.80;0.65;;;16.20;64.50;;;;;;5055549;28;20044;-18
2022/03/04 04:17:34;;;;;;;0.90;0.60;;;16.20;64.60;;;;;;5056292;28;20070;-19
2022/03/04 04:20:00;;;;;;;0.55;0.55;;;16.10;64.60;;;;;;5057320;28;20080;-19
2022/03/04 04:22:25;;;;;;;0.77;0.77;;;16.20;64.60;;;;;;5055435;28;20128;-19
2022/03/04 04:24:51;;;;;;;1.42;0.63;;;16.20;64.40;;;;;;5055756;28;20040;-19
2022/03/04 04:27:17;;;;;;;0.65;0.50;;;16.20;64.40;;;;;;5055230;28;20049;-19
2022/03/04 04:29:42;;;;;;;0.63;0.40;;;16.20;64.40;;;;;;5057412;28;20051;-19
2022/03/04 04:32:09;;;;;;;0.40;0.32;;;16.20;64.60;;;;;;5065942;28;20478;-19
2022/03/04 04:34:35;;;;;;;0.93;0.88;;;16.20;64.50;;;;;;5075754;28;20130;-19
2022/03/04 04:37:01;;;;;;;0.75;0.75;;;16.20;64.60;;;;;;5064453;28;20079;-19
2022/03/04 04:39:26;;;;;;;0.75;0.70;;;16.20;64.20;;;;;;5056461;28;20045;-19
2022/03/04 04:41:52;;;;;;;0.73;0.73;;;16.20;64.10;;;;;;5063918;28;20071;-19
2022/03/04 04:44:17;;;;;;;0.60;0.50;;;16.20;64.40;;;;;;5058788;28;20040;-19
2022/03/04 04:46:43;;;;;;;0.65;0.50;;;16.20;64.40;;;;;;5056737;28;20068;-19
2022/03/04 04:49:09;;;;;;;0.65;0.63;;;16.20;64.40;;;;;;5056232;28;20040;-19
2022/03/04 04:51:35;;;;;;;0.38;0.30;;;16.20;64.10;;;;;;5055656;28;20040;-19
2022/03/04 04:54:01;;;;;;;0.60;0.47;;;16.20;64.10;;;;;;5056306;28;20167;-19
2022/03/04 04:56:26;;;;;;;0.30;0.30;;;16.20;64.10;;;;;;5055124;28;20053;-18
2022/03/04 04:58:52;;;;;;;0.50;0.35;;;16.20;64.10;;;;;;5055236;28;20609;-18
2022/03/04 05:01:18;;;;;;;0.50;0.47;;;16.20;64.00;;;;;;5060953;28;20176;-19
2022/03/04 05:03:44;;;;;;;0.52;0.50;;;16.20;64.30;;;;;;5076620;28;20422;-19
2022/03/04 05:06:09;;;;;;;0.45;0.30;;;16.20;64.40;;;;;;5074688;28;20040;-19
2022/03/04 05:08:35;;;;;;;0.35;0.35;;;16.20;64.30;;;;;;5075133;28;20060;-19
2022/03/04 05:11:01;;;;;;;0.57;0.52;;;16.20;64.50;;;;;;5060587;28;20045;-19
2022/03/04 05:13:26;;;;;;;0.55;0.40;;;16.20;64.30;;;;;;5057759;28;20037;-19
2022/03/04 05:15:52;;;;;;;0.60;0.57;;;16.20;64.20;;;;;;5056512;28;20056;-19
2022/03/04 05:18:17;;;;;;;1.00;0.40;;;16.20;64.40;;;;;;5052208;28;20045;-19
2022/03/04 05:20:43;;;;;;;1.40;0.55;;;16.20;64.50;;;;;;5055911;28;20520;-19
2022/03/04 05:23:09;;;;;;;0.73;0.60;;;16.10;64.60;;;;;;5053981;28;20048;-19
2022/03/04 05:25:34;;;;;;;1.13;0.65;;;16.10;64.50;;;;;;5056155;28;20056;-19
2022/03/04 05:28:00;;;;;;;0.40;0.40;;;16.10;64.60;;;;;;5056678;28;20506;-19
2022/03/04 05:30:26;;;;;;;1.23;0.70;;;16.10;64.60;;;;;;5054308;28;20230;-18
2022/03/04 05:32:51;;;;;;;0.75;0.55;;;16.10;64.60;;;;;;5061243;28;20055;-18
2022/03/04 05:35:17;;;;;;;1.02;0.45;;;16.10;64.60;;;;;;5055415;28;20128;-18
2022/03/04 05:37:43;;;;;;;0.82;0.52;;;16.10;64.70;;;;;;5055948;28;20037;-19
2022/03/04 05:40:09;;;;;;;0.60;0.60;;;16.10;64.60;;;;;;5055658;28;20045;-18
2022/03/04 05:42:34;;;;;;;1.42;0.60;;;16.20;64.70;;;;;;5060014;28;20040;-18
2022/03/04 05:45:00;;;;;;;0.70;0.50;;;16.20;64.70;;;;;;5072631;28;20087;-19
2022/03/04 05:47:26;;;;;;;0.63;0.38;;;16.10;64.70;;;;;;5052899;28;20033;-18
2022/03/04 05:49:51;;;;;;;0.40;0.40;;;16.10;64.80;;;;;;5055384;28;20048;-18
2022/03/04 05:52:17;;;;;;;0.47;0.30;;;16.10;64.80;;;;;;5055187;28;20401;-19
2022/03/04 05:54:43;;;;;;;0.68;0.40;;;16.10;64.90;;;;;;5054437;28;20090;-19
2022/03/04 05:57:08;;;;;;;1.17;0.63;;;16.10;65.70;;;;;;5055890;28;20072;-18
2022/03/04 05:59:34;;;;;;;0.60;0.50;;;16.10;64.80;;;;;;5053500;28;20045;-19
2022/03/04 06:01:59;;;;;;;0.65;0.50;;;16.10;64.90;;;;;;5064826;28;20436;-19
2022/03/04 06:04:25;;;;;;;0.90;0.65;;;16.00;64.90;;;;;;5074984;28;20048;-19
2022/03/04 06:06:51;;;;;;;0.68;0.65;;;16.10;65.20;;;;;;5070447;28;20040;-19
2022/03/04 06:09:17;;;;;;;0.57;0.40;;;16.10;64.80;;;;;;5069276;28;20698;-19
2022/03/04 06:11:44;;;;;;;0.50;0.40;;;16.10;65.00;;;;;;5053482;28;20037;-19
2022/03/04 06:14:10;;;;;;;1.60;0.60;;;16.10;64.80;;;;;;5052978;28;20036;-19
2022/03/04 06:16:35;;;;;;;0.80;0.77;;;16.10;64.90;;;;;;5065915;28;20033;-19
2022/03/04 06:19:01;;;;;;;0.50;0.40;;;16.10;65.00;;;;;;5070823;28;20057;-19
2022/03/04 06:21:27;;;;;;;0.45;0.40;;;16.10;64.90;;;;;;5053045;28;20033;-18
2022/03/04 06:23:52;;;;;;;0.57;0.43;;;16.10;65.20;;;;;;5055623;28;20049;-19
2022/03/04 06:26:20;;;;;;;0.55;0.47;;;16.10;65.00;;;;;;5054455;28;20098;-19
2022/03/04 06:28:46;;;;;;;0.80;0.40;;;16.10;64.80;;;;;;5053279;28;20454;-19
2022/03/04 06:31:11;;;;;;;0.40;0.30;;;16.20;64.80;;;;;;5044422;28;20509;-20
2022/03/04 06:33:38;;;;;;;0.80;0.40;;;16.10;64.60;;;;;;5066271;28;20394;-18
2022/03/04 06:36:13;;;;;;;0.47;0.47;;;16.10;65.00;;;;;;5062772;28;20545;-18
2022/03/04 06:38:41;;;;;;;0.65;0.57;;;16.10;64.90;;;;;;5062614;28;20056;-19
2022/03/04 06:41:07;;;;;;;0.50;0.35;;;16.10;65.10;;;;;;5063850;28;20041;-19
2022/03/04 06:43:32;;;;;;;0.57;0.50;;;16.10;65.10;;;;;;5067362;28;20051;-19
2022/03/04 06:45:58;;;;;;;0.45;0.30;;;16.10;65.00;;;;;;5062418;28;20043;-19
2022/03/04 06:48:24;;;;;;;0.40;0.40;;;16.00;65.20;;;;;;5054213;28;20132;-19
2022/03/04 06:50:50;;;;;;;0.57;0.50;;;16.00;65.10;;;;;;5054860;28;20041;-19
2022/03/04 06:53:16;;;;;;;0.57;0.30;;;16.10;65.00;;;;;;4709950;28;10000433;-20
2022/03/04 06:55:42;;;;;;;1.05;0.30;;;16.10;64.60;;;;;;5060409;28;20501;-19
2022/03/04 06:58:07;;;;;;;0.60;0.43;;;16.10;64.70;;;;;;5063227;28;20076;-19
2022/03/04 07:00:33;;;;;;;0.65;0.30;;;16.10;65.00;;;;;;5061659;28;20048;-20
2022/03/04 07:02:59;;;;;;;0.65;0.47;;;16.10;64.60;;;;;;5065864;28;20044;-19
2022/03/04 07:05:24;;;;;;;0.43;0.40;;;16.10;65.00;;;;;;5050012;28;20055;-19
2022/03/04 07:07:50;;;;;;;0.60;0.40;;;16.20;64.80;;;;;;5062732;28;20103;-18
2022/03/04 07:10:16;;;;;;;0.75;0.43;;;16.10;64.50;;;;;;5070119;28;20040;-19
2022/03/04 07:12:42;;;;;;;1.50;0.55;;;16.20;64.70;;;;;;5052637;28;20053;-19
2022/03/04 07:15:08;;;;;;;0.55;0.50;;;16.10;64.60;;;;;;5071244;28;20036;-20
2022/03/04 07:17:34;;;;;;;0.50;0.35;;;16.10;64.60;;;;;;5057161;28;20799;-21
2022/03/04 07:19:59;;;;;;;1.27;0.60;;;16.10;65.00;;;;;;5067398;28;20531;-21
2022/03/04 07:22:25;;;;;;;1.35;0.40;;;16.10;65.00;;;;;;5076694;28;20051;-21
2022/03/04 07:24:51;;;;;;;0.40;0.30;;;16.10;65.10;;;;;;5059144;28;20090;-21
2022/03/04 07:27:16;;;;;;;2.13;0.40;;;16.00;65.00;;;;;;5073997;28;20048;-21
2022/03/04 07:29:42;;;;;;;0.95;0.55;;;16.10;65.00;;;;;;5078144;28;20059;-21
2022/03/04 07:32:07;;;;;;;1.20;0.40;;;16.10;65.10;;;;;;5074019;28;20037;-21
2022/03/04 07:34:34;;;;;;;1.48;0.30;;;16.20;65.10;;;;;;5072704;28;20052;-21
2022/03/04 07:36:59;;;;;;;0.73;0.65;;;16.10;64.80;;;;;;5078283;28;20482;-21
2022/03/04 07:39:25;;;;;;;1.73;0.40;;;16.10;64.70;;;;;;5077633;28;20424;-19
2022/03/04 07:41:51;;;;;;;2.05;0.50;;;16.20;65.00;;;;;;5069870;28;20057;-19
2022/03/04 07:44:19;;;;;;;2.08;0.50;;;16.10;65.00;;;;;;5074987;28;20036;-19
2022/03/04 07:46:45;;;;;;;1.90;0.50;;;16.10;65.30;;;;;;5065697;28;20052;-19
2022/03/04 07:49:11;;;;;;;0.80;0.40;;;16.10;65.20;;;;;;5064848;28;20041;-19
2022/03/04 07:51:36;;;;;;;1.40;0.45;;;16.10;65.40;;;;;;5076623;28;20048;-21
2022/03/04 07:54:02;;;;;;;0.65;0.47;;;16.10;65.30;;;;;;5075401;28;20068;-21
2022/03/04 07:56:27;;;;;;;1.40;0.50;;;16.10;65.30;;;;;;5062947;28;20144;-21
2022/03/04 07:58:53;;;;;;;2.85;0.77;;;16.10;65.50;;;;;;5057051;28;20068;-21
2022/03/04 08:01:19;;;;;;;0.70;0.60;;;16.00;65.50;;;;;;5072678;28;20119;-21
2022/03/04 08:03:45;;;;;;;0.80;0.32;;;16.00;65.50;;;;;;5074641;28;20448;-21
2022/03/04 08:06:10;;;;;;;0.93;0.50;;;16.10;65.30;;;;;;5074089;28;20040;-21
2022/03/04 08:08:36;;;;;;;1.40;0.57;;;16.10;65.50;;;;;;5066578;28;20110;-21
2022/03/04 08:11:02;;;;;;;0.50;0.50;;;16.20;65.30;;;;;;5077604;28;20067;-21
2022/03/04 08:13:27;;;;;;;0.75;0.35;;;16.10;65.20;;;;;;5058257;28;20087;-21
2022/03/04 08:15:53;;;;;;;1.23;0.50;;;16.10;65.20;;;;;;5057678;28;20167;-21
2022/03/04 08:18:19;;;;;;;1.40;0.30;;;16.20;65.00;;;;;;5056681;28;20059;-21
2022/03/04 08:20:44;;;;;;;0.55;0.47;;;16.20;65.10;;;;;;5057261;28;20053;-21
2022/03/04 08:23:11;;;;;;;0.32;0.20;;;16.20;65.00;;;;;;5057035;28;20041;-21
2022/03/04 08:25:38;;;;;;;1.05;0.50;;;16.20;65.00;;;;;;5062900;28;20611;-21
2022/03/04 08:28:04;;;;;;;1.75;0.20;;;16.20;64.90;;;;;;5070314;28;20040;-21
2022/03/04 08:30:29;;;;;;;0.70;0.40;;;16.20;64.80;;;;;;5056101;28;20049;-21
2022/03/04 08:32:55;;;;;;;0.40;0.40;;;16.20;64.80;;;;;;5070832;28;20033;-21
2022/03/04 08:35:20;;;;;;;1.55;0.70;;;16.20;64.90;;;;;;5056740;28;20098;-21
2022/03/04 08:37:46;;;;;;;0.30;0.22;;;16.20;65.10;;;;;;5062096;28;20557;-21
2022/03/04 08:40:12;;;;;;;0.95;0.52;;;16.20;64.80;;;;;;5067076;28;20051;-21
2022/03/04 08:42:39;;;;;;;1.95;0.45;;;16.20;64.90;;;;;;5061193;28;20199;-21
2022/03/04 08:45:05;;;;;;;0.40;0.30;;;16.20;65.00;;;;;;5070394;28;20520;-21
2022/03/04 08:47:30;;;;;;;2.25;0.43;;;16.20;65.00;;;;;;5066545;28;20039;-21
2022/03/04 08:49:56;;;;;;;0.50;0.38;;;16.20;65.10;;;;;;5064964;28;20036;-21
2022/03/04 08:52:22;;;;;;;2.25;0.60;;;16.20;64.90;;;;;;5063564;28;20076;-21
2022/03/04 08:54:47;;;;;;;0.50;0.30;;;16.20;64.70;;;;;;5067163;28;20040;-21
2022/03/04 08:57:13;;;;;;;0.30;0.30;;;16.30;64.70;;;;;;5075230;28;20574;-21
2022/03/04 08:59:39;;;;;;;0.75;0.40;;;16.30;64.80;;;;;;5075807;28;20135;-21
2022/03/04 09:02:05;;;;;;;3.28;0.68;;;16.30;64.70;;;;;;5066452;28;20135;-21
2022/03/04 09:04:30;;;;;;;0.90;0.43;;;16.30;64.50;;;;;;5062937;28;20044;-21
2022/03/04 09:06:56;;;;;;;0.50;0.30;;;16.30;65.20;;;;;;5069838;28;20041;-21
2022/03/04 09:09:22;;;;;;;0.57;0.38;;;16.40;64.40;;;;;;5064961;28;20048;-21
2022/03/04 09:11:47;;;;;;;1.95;0.60;;;16.40;64.40;;;;;;5076186;28;20043;-21
2022/03/04 09:14:13;;;;;;;0.68;0.30;;;16.40;64.40;;;;;;5069516;28;20040;-21
2022/03/04 09:16:39;;;;;;;0.28;0.28;;;16.30;64.40;;;;;;5057359;28;20053;-21
2022/03/04 09:19:04;;;;;;;1.55;0.55;;;16.40;64.50;;;;;;5063338;28;20052;-23
2022/03/04 09:21:30;;;;;;;0.90;0.30;;;16.40;64.20;;;;;;5067186;28;20567;-21
2022/03/04 09:23:55;;;;;;;0.40;0.30;;;16.40;64.20;;;;;;5063994;28;20154;-21
2022/03/04 09:26:21;;;;;;;0.43;0.28;;;16.40;64.10;;;;;;5061697;28;20465;-19
2022/03/04 09:28:47;;;;;;;0.40;0.22;;;16.40;64.20;;;;;;5075486;28;20048;-19
2022/03/04 09:31:13;;;;;;;1.02;0.38;;;16.40;64.00;;;;;;5075977;28;20132;-19
2022/03/04 09:33:39;;;;;;;0.30;0.30;;;16.50;64.10;;;;;;5058484;28;20049;-19
2022/03/04 09:36:06;;;;;;;0.68;0.40;;;16.40;64.20;;;;;;5055847;28;20045;-20
2022/03/04 09:38:31;;;;;;;0.60;0.30;;;16.40;64.20;;;;;;5064525;28;20089;-21
2022/03/04 09:40:57;;;;;;;0.30;0.20;;;16.40;64.00;;;;;;5058354;28;20048;-21
2022/03/04 09:43:23;;;;;;;1.70;0.40;;;16.50;64.00;;;;;;5038035;28;20119;-21
2022/03/04 09:45:49;;;;;;;0.45;0.30;;;16.40;64.40;;;;;;5074350;28;20055;-21
2022/03/04 09:48:15;;;;;;;0.38;0.30;;;16.40;64.50;;;;;;5075666;28;20131;-21
2022/03/04 09:50:42;;;;;;;0.32;0.20;;;16.40;64.30;;;;;;5075074;28;20068;-21
2022/03/04 09:53:11;;;;;;;0.80;0.40;;;16.40;64.30;;;;;;5056120;28;20072;-21
2022/03/04 09:55:40;;;;;;;0.70;0.43;;;16.40;64.30;;;;;;5063922;28;20044;-21
2022/03/04 09:58:12;;;;;;;0.50;0.28;;;16.40;64.20;;;;;;5075113;28;20400;-21
2022/03/04 10:00:42;;;;;;;0.85;0.40;;;16.30;64.70;;;;;;5070553;28;20068;-21
2022/03/04 10:03:21;;;;;;;0.50;0.50;;;16.40;64.60;;;;;;5055215;28;20040;-21
2022/03/04 10:05:53;;;;;;;0.38;0.25;;;16.40;64.60;;;;;;5058703;28;20055;-21
2022/03/04 10:08:19;;;;;;;0.45;0.45;;;16.40;64.20;;;;;;5066352;28;20513;-21
2022/03/04 10:10:52;;;;;;;0.40;0.35;;;16.40;64.50;;;;;;5070291;28;20492;-21
2022/03/04 10:13:18;;;;;;;0.57;0.45;;;16.30;64.70;;;;;;5066990;28;20098;-21
2022/03/04 10:15:54;;;;;;;0.32;0.20;;;16.40;64.70;;;;;;5057012;28;20057;-22
2022/03/04 10:18:26;;;;;;;0.93;0.40;;;16.40;64.50;;;;;;5066355;28;20450;-21
2022/03/04 10:20:52;;;;;;;0.63;0.30;;;16.40;64.50;;;;;;5054829;28;20064;-19
2022/03/04 10:23:27;;;;;;;0.88;0.43;;;16.40;64.60;;;;;;5055181;28;20040;-19
2022/03/04 10:25:57;;;;;;;0.30;0.30;;;16.40;64.50;;;;;;5065107;28;20149;-19
2022/03/04 10:28:24;;;;;;;0.55;0.40;;;16.40;64.40;;;;;;5056169;28;20516;-21
2022/03/04 10:30:50;;;;;;;0.88;0.40;;;16.40;64.50;;;;;;5062142;28;20060;-21
2022/03/04 10:33:23;;;;;;;1.15;0.50;;;16.50;64.30;;;;;;5062769;28;20048;-21
2022/03/04 10:36:13;;;;;;;0.70;0.50;;;16.50;64.50;;;;;;5063023;28;20049;-21
2022/03/04 10:38:39;;;;;;;0.47;0.40;;;16.50;64.40;;;;;;5064850;28;20044;-22
2022/03/04 10:41:21;;;;;;;0.88;0.40;;;16.60;64.20;;;;;;5063908;28;20049;-21
2022/03/04 10:43:47;;;;;;;1.23;0.60;;;16.60;64.20;;;;;;5065579;28;20072;-21
2022/03/04 10:46:14;;;;;;;0.45;0.38;;;16.60;64.10;;;;;;5064899;28;20072;-21
2022/03/04 10:48:53;;;;;;;0.65;0.30;;;16.60;63.90;;;;;;5065943;28;20041;-21
2022/03/04 10:51:32;;;;;;;1.45;0.32;;;16.60;63.90;;;;;;5062633;28;20048;-21
2022/03/04 10:54:15;;;;;;;0.47;0.40;;;16.50;64.20;;;;;;5067339;28;20124;-21
2022/03/04 10:56:55;;;;;;;1.73;0.30;;;16.60;64.20;;;;;;5062688;28;20578;-21
2022/03/04 10:59:21;;;;;;;2.67;0.20;;;16.60;64.20;;;;;;5071532;28;20102;-21
2022/03/04 11:01:55;;;;;;;0.30;0.20;;;16.60;64.00;;;;;;5061280;28;20056;-21
2022/03/04 11:04:20;;;;;;;0.28;0.20;;;16.60;64.00;;;;;;5067757;28;20037;-21
2022/03/04 11:06:47;;;;;;;0.40;0.30;;;16.60;65.00;;;;;;5067526;28;20740;-21
2022/03/04 11:09:14;;;;;;;2.20;0.32;;;16.60;64.20;;;;;;5065997;28;20505;-21
2022/03/04 11:11:43;;;;;;;0.47;0.22;;;16.60;64.30;;;;;;5072400;28;20048;-21
2022/03/04 11:14:09;;;;;;;0.30;0.30;;;16.60;64.00;;;;;;5075228;28;20091;-21
2022/03/04 11:16:35;;;;;;;0.30;0.30;;;16.60;64.00;;;;;;5067441;28;20108;-21
2022/03/04 11:19:01;;;;;;;0.38;0.28;;;16.70;63.90;;;;;;5058417;28;20053;-21
2022/03/04 11:21:27;;;;;;;0.90;0.38;;;16.70;63.80;;;;;;5057267;28;20475;-21
2022/03/04 11:23:53;;;;;;;0.68;0.40;;;16.70;63.80;;;;;;5057874;28;20045;-19
2022/03/04 11:26:20;;;;;;;0.30;0.30;;;16.80;63.60;;;;;;5070158;28;20048;-19
2022/03/04 11:28:49;;;;;;;0.85;0.50;;;16.80;63.60;;;;;;5058836;28;20713;-21
2022/03/04 11:31:16;;;;;;;0.85;0.52;;;16.80;63.50;;;;;;5060303;28;20051;-21
2022/03/04 11:33:52;;;;;;;0.70;0.70;;;16.80;63.70;;;;;;5068417;28;20050;-21
2022/03/04 11:36:18;;;;;;;1.02;0.90;;;16.80;63.80;;;;;;5075243;28;20562;-21
2022/03/04 11:38:44;;;;;;;1.10;0.68;;;16.90;63.70;;;;;;5077162;28;20047;-21
2022/03/04 11:41:25;;;;;;;0.70;0.70;;;16.90;63.80;;;;;;5078219;28;20040;-21
2022/03/04 11:44:18;;;;;;;1.20;1.10;;;16.80;63.80;;;;;;5056886;28;20098;-21
2022/03/04 11:47:04;;;;;;;1.15;1.05;;;16.80;63.70;;;;;;5058958;28;20041;-21
2022/03/04 11:49:41;;;;;;;1.00;1.00;;;16.90;63.80;;;;;;5070693;28;20072;-21
2022/03/04 11:52:10;;;;;;;1.00;1.00;;;16.90;63.80;;;;;;5061065;28;20041;-21
2022/03/04 11:54:42;;;;;;;3.13;0.90;;;16.90;63.70;;;;;;5057608;28;20045;-19
2022/03/04 11:57:21;;;;;;;1.10;1.10;;;16.90;63.70;;;;;;5077665;28;20177;-19
2022/03/04 12:00:01;;;;;;;1.10;1.05;;;16.90;63.40;;;;;;5076686;28;20044;-19
2022/03/04 12:02:27;;;;;;;1.17;1.08;;;17.00;63.20;;;;;;5063210;28;20045;-21
2022/03/04 12:05:19;;;;;;;0.95;0.95;;;17.00;63.10;;;;;;5065441;28;20497;-21
2022/03/04 12:07:56;;;;;;;0.80;0.80;;;17.00;63.20;;;;;;5056649;28;20599;-21
2022/03/04 12:10:26;;;;;;;0.82;0.82;;;16.90;63.30;;;;;;5057547;28;20048;-21
2022/03/04 12:13:02;;;;;;;1.27;1.20;;;17.00;63.10;;;;;;5056898;28;20048;-21
2022/03/04 12:15:40;;;;;;;1.55;1.13;;;17.00;62.80;;;;;;5057240;28;20410;-21
2022/03/04 12:18:16;;;;;;;0.88;0.82;;;17.00;62.70;;;;;;5060967;28;20134;-21
2022/03/04 12:20:42;;;;;;;0.98;0.88;;;17.00;63.00;;;;;;5074156;28;20092;-21
2022/03/04 12:23:12;;;;;;;1.20;1.10;;;16.90;62.80;;;;;;5057313;28;20045;-22
2022/03/04 12:25:53;;;;;;;0.70;0.70;;;17.00;62.80;;;;;;5062936;28;20044;-21
2022/03/04 12:28:41;;;;;;;2.15;0.88;;;17.00;62.60;;;;;;5084530;28;20135;-18
2022/03/04 12:31:14;;;;;;;0.85;0.75;;;17.10;62.40;;;;;;5076444;28;20073;-18
2022/03/04 12:33:44;;;;;;;0.82;0.63;;;17.10;62.60;;;;;;5069411;28;20053;-19
2022/03/04 12:36:15;;;;;;;0.70;0.70;;;17.10;62.30;;;;;;4708290;28;9999869;-18
2022/03/04 12:38:51;;;;;;;0.80;0.80;;;17.10;63.10;;;;;;5069818;28;20044;-21
2022/03/04 12:41:19;;;;;;;0.95;0.75;;;17.10;63.60;;;;;;5071691;28;20056;-21
2022/03/04 12:43:50;;;;;;;0.55;0.55;;;17.10;63.20;;;;;;5072295;28;20033;-21
2022/03/04 12:46:19;;;;;;;0.60;0.60;;;17.10;63.20;;;;;;5071692;28;20064;-21